PWSweather.com
Personal Weather Stations
Station Observations
WD4JKH
Forsyth, GA 31029

Forsyth, GA 31029

Lat: 33.033225, Lon: -83.927995

Elevation: 709

Station Type: Davis Vantage VUE

High Low Average
Temperature 94.3°F34.6°C 75.3°F24.1°C 83.7°F28.7°C
Dew Point 73.7°F23.2°C 58.5°F14.7°C 65.8°F18.8°C
Winds 9.7 mph 15.6 kmh Calm Calm 3.0 mph WNW4.8 kmh WNW
Wind Gusts 19.0 mph30.6 kmh 2.0 mph3.2 kmh 10.0 mph16.1 kmh
Humidity 75% 31% 57%
Pressure 29.89 in1012.2 mb 29.80 in1009.1 mb -
Precipitation 0.00 in0.0 mm - -
Hour Temp Dew Point Humidity Winds Wind Gusts Pressure Precip Precip Rate Daily Precip Total
12:03 AM 79.0°F26.1°C 68.6°F20.3°C 70% 1.2 mph NNW1.9 kmh NNW 2.0 mph3.2 kmh 29.87 in1011.5 mb 0.00 in0.0 mm 0.00 in0.0 mm 0.00 in0.0 mm
12:08 AM 79.0°F26.1°C 68.6°F20.3°C 70% 1.2 mph NNW1.9 kmh NNW 2.0 mph3.2 kmh 29.87 in1011.5 mb 0.00 in0.0 mm 0.00 in0.0 mm 0.00 in0.0 mm
12:13 AM 78.9°F26.1°C 68.3°F20.2°C 70% 1.3 mph NNW2.1 kmh NNW 2.0 mph3.2 kmh 29.87 in1011.5 mb 0.00 in0.0 mm 0.00 in0.0 mm 0.00 in0.0 mm
12:18 AM 78.9°F26.1°C 68.5°F20.3°C 70% 1.0 mph NW1.6 kmh NW 3.0 mph4.8 kmh 29.87 in1011.5 mb 0.00 in0.0 mm 0.00 in0.0 mm 0.00 in0.0 mm
12:23 AM 78.8°F26.0°C 68.4°F20.2°C 70% Calm Calm 3.0 mph4.8 kmh 29.87 in1011.5 mb 0.00 in0.0 mm 0.00 in0.0 mm 0.00 in0.0 mm
12:28 AM 78.6°F25.9°C 68.6°F20.3°C 71% 1.0 mph NW1.6 kmh NW 3.0 mph4.8 kmh 29.87 in1011.5 mb 0.00 in0.0 mm 0.00 in0.0 mm 0.00 in0.0 mm
12:33 AM 78.4°F25.8°C 68.4°F20.2°C 71% 1.2 mph NNE1.9 kmh NNE 3.0 mph4.8 kmh 29.86 in1011.2 mb 0.00 in0.0 mm 0.00 in0.0 mm 0.00 in0.0 mm
12:38 AM 78.2°F25.7°C 68.6°F20.3°C 72% 1.0 mph NW1.6 kmh NW 2.0 mph3.2 kmh 29.86 in1011.2 mb 0.00 in0.0 mm 0.00 in0.0 mm 0.00 in0.0 mm
12:43 AM 78.0°F25.6°C 68.4°F20.2°C 72% Calm Calm 2.0 mph3.2 kmh 29.86 in1011.2 mb 0.00 in0.0 mm 0.00 in0.0 mm 0.00 in0.0 mm
12:48 AM 77.9°F25.5°C 68.7°F20.4°C 73% 1.0 mph NW1.6 kmh NW 2.0 mph3.2 kmh 29.86 in1011.2 mb 0.00 in0.0 mm 0.00 in0.0 mm 0.00 in0.0 mm
12:53 AM 77.8°F25.4°C 68.6°F20.3°C 73% 1.9 mph NW3.1 kmh NW 2.0 mph3.2 kmh 29.86 in1011.2 mb 0.00 in0.0 mm 0.00 in0.0 mm 0.00 in0.0 mm
12:58 AM 77.8°F25.4°C 68.4°F20.2°C 73% 1.5 mph NW2.4 kmh NW 2.0 mph3.2 kmh 29.86 in1011.2 mb 0.00 in0.0 mm 0.00 in0.0 mm 0.00 in0.0 mm
01:03 AM 77.7°F25.4°C 68.4°F20.2°C 73% 1.9 mph NW3.1 kmh NW 4.0 mph6.4 kmh 29.86 in1011.2 mb 0.00 in0.0 mm 0.00 in0.0 mm 0.00 in0.0 mm
01:08 AM 77.7°F25.4°C 68.5°F20.3°C 73% 1.8 mph N2.9 kmh N 4.0 mph6.4 kmh 29.86 in1011.2 mb 0.00 in0.0 mm 0.00 in0.0 mm 0.00 in0.0 mm
01:13 AM 77.6°F25.3°C 68.4°F20.2°C 73% 2.2 mph N3.5 kmh N 4.0 mph6.4 kmh 29.86 in1011.2 mb 0.00 in0.0 mm 0.00 in0.0 mm 0.00 in0.0 mm
01:18 AM 77.5°F25.3°C 68.3°F20.2°C 73% 2.0 mph NNW3.2 kmh NNW 4.0 mph6.4 kmh 29.86 in1011.2 mb 0.00 in0.0 mm 0.00 in0.0 mm 0.00 in0.0 mm
01:23 AM 77.6°F25.3°C 68.4°F20.2°C 73% 2.2 mph NNW3.5 kmh NNW 4.0 mph6.4 kmh 29.86 in1011.2 mb 0.00 in0.0 mm 0.00 in0.0 mm 0.00 in0.0 mm
01:28 AM 77.4°F25.2°C 68.3°F20.2°C 73% 2.3 mph NNW3.7 kmh NNW 5.0 mph8.0 kmh 29.86 in1011.2 mb 0.00 in0.0 mm 0.00 in0.0 mm 0.00 in0.0 mm
01:33 AM 77.3°F25.2°C 68.5°F20.3°C 74% 2.6 mph NW4.2 kmh NW 8.0 mph12.9 kmh 29.86 in1011.2 mb 0.00 in0.0 mm 0.00 in0.0 mm 0.00 in0.0 mm
01:38 AM 77.4°F25.2°C 68.6°F20.3°C 74% 2.8 mph NNW4.5 kmh NNW 8.0 mph12.9 kmh 29.85 in1010.8 mb 0.00 in0.0 mm 0.00 in0.0 mm 0.00 in0.0 mm
01:43 AM 77.4°F25.2°C 68.3°F20.2°C 73% 3.0 mph NNW4.8 kmh NNW 8.0 mph12.9 kmh 29.85 in1010.8 mb 0.00 in0.0 mm 0.00 in0.0 mm 0.00 in0.0 mm
01:48 AM 77.5°F25.3°C 68.2°F20.1°C 73% 2.3 mph NNW3.7 kmh NNW 8.0 mph12.9 kmh 29.85 in1010.8 mb 0.00 in0.0 mm 0.00 in0.0 mm 0.00 in0.0 mm
01:53 AM 77.3°F25.2°C 68.0°F20.0°C 73% 2.5 mph NNW4.0 kmh NNW 7.0 mph11.3 kmh 29.85 in1010.8 mb 0.00 in0.0 mm 0.00 in0.0 mm 0.00 in0.0 mm
01:58 AM 77.3°F25.2°C 68.0°F20.0°C 73% 2.0 mph NW3.2 kmh NW 10.0 mph16.1 kmh 29.85 in1010.8 mb 0.00 in0.0 mm 0.00 in0.0 mm 0.00 in0.0 mm
02:03 AM 77.2°F25.1°C 68.1°F20.1°C 73% 2.3 mph NNW3.7 kmh NNW 10.0 mph16.1 kmh 29.85 in1010.8 mb 0.00 in0.0 mm 0.00 in0.0 mm 0.00 in0.0 mm
02:08 AM 77.1°F25.1°C 68.0°F20.0°C 73% 1.5 mph NNW2.4 kmh NNW 10.0 mph16.1 kmh 29.85 in1010.8 mb 0.00 in0.0 mm 0.00 in0.0 mm 0.00 in0.0 mm
02:13 AM 76.9°F24.9°C 67.8°F19.9°C 73% 1.9 mph NNW3.1 kmh NNW 10.0 mph16.1 kmh 29.85 in1010.8 mb 0.00 in0.0 mm 0.00 in0.0 mm 0.00 in0.0 mm
02:18 AM 76.7°F24.8°C 68.0°F20.0°C 74% 1.8 mph N2.9 kmh N 7.0 mph11.3 kmh 29.85 in1010.8 mb 0.00 in0.0 mm 0.00 in0.0 mm 0.00 in0.0 mm
02:23 AM 76.6°F24.8°C 67.9°F19.9°C 74% 1.9 mph N3.1 kmh N 6.0 mph9.7 kmh 29.85 in1010.8 mb 0.00 in0.0 mm 0.00 in0.0 mm 0.00 in0.0 mm
02:28 AM 76.5°F24.7°C 67.8°F19.9°C 74% 1.1 mph NNE1.8 kmh NNE 6.0 mph9.7 kmh 29.85 in1010.8 mb 0.00 in0.0 mm 0.00 in0.0 mm 0.00 in0.0 mm
02:33 AM 76.3°F24.6°C 67.6°F19.8°C 74% 1.8 mph N2.9 kmh N 5.0 mph8.0 kmh 29.85 in1010.8 mb 0.00 in0.0 mm 0.00 in0.0 mm 0.00 in0.0 mm
02:38 AM 76.2°F24.6°C 67.5°F19.7°C 74% 1.6 mph NNW2.6 kmh NNW 6.0 mph9.7 kmh 29.85 in1010.8 mb 0.00 in0.0 mm 0.00 in0.0 mm 0.00 in0.0 mm
02:43 AM 76.1°F24.5°C 67.8°F19.9°C 75% 1.9 mph N3.1 kmh N 7.0 mph11.3 kmh 29.85 in1010.8 mb 0.00 in0.0 mm 0.00 in0.0 mm 0.00 in0.0 mm
02:48 AM 76.0°F24.4°C 67.7°F19.8°C 75% 1.3 mph N2.1 kmh N 7.0 mph11.3 kmh 29.85 in1010.8 mb 0.00 in0.0 mm 0.00 in0.0 mm 0.00 in0.0 mm
02:53 AM 75.9°F24.4°C 67.6°F19.8°C 75% 1.4 mph NNW2.3 kmh NNW 7.0 mph11.3 kmh 29.85 in1010.8 mb 0.00 in0.0 mm 0.00 in0.0 mm 0.00 in0.0 mm
02:58 AM 75.9°F24.4°C 67.6°F19.8°C 75% 1.5 mph NNW2.4 kmh NNW 7.0 mph11.3 kmh 29.85 in1010.8 mb 0.00 in0.0 mm 0.00 in0.0 mm 0.00 in0.0 mm
03:03 AM 75.8°F24.3°C 67.5°F19.7°C 75% 2.1 mph NW3.4 kmh NW 6.0 mph9.7 kmh 29.85 in1010.8 mb 0.00 in0.0 mm 0.00 in0.0 mm 0.00 in0.0 mm
03:07 AM 75.8°F24.3°C 67.5°F19.7°C 75% 1.7 mph NW2.7 kmh NW 6.0 mph9.7 kmh 29.84 in1010.5 mb 0.00 in0.0 mm 0.00 in0.0 mm 0.00 in0.0 mm
03:12 AM 75.8°F24.3°C 67.5°F19.7°C 75% 1.8 mph NW2.9 kmh NW 6.0 mph9.7 kmh 29.84 in1010.5 mb 0.00 in0.0 mm 0.00 in0.0 mm 0.00 in0.0 mm
03:17 AM 75.9°F24.4°C 67.2°F19.6°C 74% 1.6 mph NE2.6 kmh NE 6.0 mph9.7 kmh 29.84 in1010.5 mb 0.00 in0.0 mm 0.00 in0.0 mm 0.00 in0.0 mm
03:22 AM 76.1°F24.5°C 67.4°F19.7°C 74% 2.3 mph NNW3.7 kmh NNW 6.0 mph9.7 kmh 29.84 in1010.5 mb 0.00 in0.0 mm 0.00 in0.0 mm 0.00 in0.0 mm
03:27 AM 76.2°F24.6°C 67.1°F19.5°C 73% 3.0 mph N4.8 kmh N 6.0 mph9.7 kmh 29.84 in1010.5 mb 0.00 in0.0 mm 0.00 in0.0 mm 0.00 in0.0 mm
03:32 AM 76.2°F24.6°C 67.1°F19.5°C 73% 2.1 mph NW3.4 kmh NW 6.0 mph9.7 kmh 29.84 in1010.5 mb 0.00 in0.0 mm 0.00 in0.0 mm 0.00 in0.0 mm
03:37 AM 76.1°F24.5°C 66.8°F19.3°C 73% 2.8 mph NW4.5 kmh NW 6.0 mph9.7 kmh 29.84 in1010.5 mb 0.00 in0.0 mm 0.00 in0.0 mm 0.00 in0.0 mm
03:42 AM 76.0°F24.4°C 66.9°F19.4°C 73% 3.1 mph NW5.0 kmh NW 7.0 mph11.3 kmh 29.84 in1010.5 mb 0.00 in0.0 mm 0.00 in0.0 mm 0.00 in0.0 mm
03:47 AM 76.0°F24.4°C 66.9°F19.4°C 73% 3.7 mph NW6.0 kmh NW 9.0 mph14.5 kmh 29.84 in1010.5 mb 0.00 in0.0 mm 0.00 in0.0 mm 0.00 in0.0 mm
03:52 AM 75.9°F24.4°C 66.8°F19.3°C 73% 2.4 mph NNW3.9 kmh NNW 9.0 mph14.5 kmh 29.84 in1010.5 mb 0.00 in0.0 mm 0.00 in0.0 mm 0.00 in0.0 mm
03:57 AM 75.8°F24.3°C 67.1°F19.5°C 74% 2.0 mph N3.2 kmh N 9.0 mph14.5 kmh 29.84 in1010.5 mb 0.00 in0.0 mm 0.00 in0.0 mm 0.00 in0.0 mm
04:02 AM 75.6°F24.2°C 66.9°F19.4°C 74% 2.3 mph NW3.7 kmh NW 9.0 mph14.5 kmh 29.84 in1010.5 mb 0.00 in0.0 mm 0.00 in0.0 mm 0.00 in0.0 mm
04:07 AM 75.5°F24.2°C 66.8°F19.3°C 74% 2.0 mph NW3.2 kmh NW 8.0 mph12.9 kmh 29.84 in1010.5 mb 0.00 in0.0 mm 0.00 in0.0 mm 0.00 in0.0 mm
04:12 AM 75.5°F24.2°C 66.6°F19.2°C 74% 2.8 mph NW4.5 kmh NW 7.0 mph11.3 kmh 29.84 in1010.5 mb 0.00 in0.0 mm 0.00 in0.0 mm 0.00 in0.0 mm
04:17 AM 75.5°F24.2°C 66.8°F19.3°C 74% 3.4 mph NW5.5 kmh NW 7.0 mph11.3 kmh 29.84 in1010.5 mb 0.00 in0.0 mm 0.00 in0.0 mm 0.00 in0.0 mm
04:22 AM 75.6°F24.2°C 66.9°F19.4°C 74% 2.8 mph NW4.5 kmh NW 7.0 mph11.3 kmh 29.84 in1010.5 mb 0.00 in0.0 mm 0.00 in0.0 mm 0.00 in0.0 mm
04:27 AM 75.6°F24.2°C 66.5°F19.2°C 73% 2.2 mph NW3.5 kmh NW 7.0 mph11.3 kmh 29.85 in1010.8 mb 0.00 in0.0 mm 0.00 in0.0 mm 0.00 in0.0 mm
04:32 AM 75.6°F24.2°C 66.5°F19.2°C 73% 1.8 mph NW2.9 kmh NW 7.0 mph11.3 kmh 29.85 in1010.8 mb 0.00 in0.0 mm 0.00 in0.0 mm 0.00 in0.0 mm
04:37 AM 75.7°F24.3°C 66.6°F19.2°C 73% 2.4 mph NW3.9 kmh NW 8.0 mph12.9 kmh 29.85 in1010.8 mb 0.00 in0.0 mm 0.00 in0.0 mm 0.00 in0.0 mm
04:42 AM 75.7°F24.3°C 66.6°F19.2°C 73% 1.8 mph NNW2.9 kmh NNW 8.0 mph12.9 kmh 29.85 in1010.8 mb 0.00 in0.0 mm 0.00 in0.0 mm 0.00 in0.0 mm
04:47 AM 75.7°F24.3°C 66.6°F19.2°C 73% 2.4 mph NW3.9 kmh NW 8.0 mph12.9 kmh 29.85 in1010.8 mb 0.00 in0.0 mm 0.00 in0.0 mm 0.00 in0.0 mm
04:52 AM 75.8°F24.3°C 66.7°F19.3°C 73% 1.8 mph NW2.9 kmh NW 7.0 mph11.3 kmh 29.85 in1010.8 mb 0.00 in0.0 mm 0.00 in0.0 mm 0.00 in0.0 mm
04:57 AM 75.8°F24.3°C 66.7°F19.3°C 73% 2.0 mph NW3.2 kmh NW 7.0 mph11.3 kmh 29.85 in1010.8 mb 0.00 in0.0 mm 0.00 in0.0 mm 0.00 in0.0 mm
05:02 AM 75.8°F24.3°C 66.7°F19.3°C 73% 2.3 mph NW3.7 kmh NW 7.0 mph11.3 kmh 29.85 in1010.8 mb 0.00 in0.0 mm 0.00 in0.0 mm 0.00 in0.0 mm
05:07 AM 75.7°F24.3°C 66.6°F19.2°C 73% 1.4 mph NW2.3 kmh NW 7.0 mph11.3 kmh 29.85 in1010.8 mb 0.00 in0.0 mm 0.00 in0.0 mm 0.00 in0.0 mm
05:12 AM 75.6°F24.2°C 66.3°F19.1°C 73% 1.2 mph N1.9 kmh N 6.0 mph9.7 kmh 29.86 in1011.2 mb 0.00 in0.0 mm 0.00 in0.0 mm 0.00 in0.0 mm
05:17 AM 75.5°F24.2°C 66.6°F19.2°C 74% 1.0 mph N1.6 kmh N 6.0 mph9.7 kmh 29.86 in1011.2 mb 0.00 in0.0 mm 0.00 in0.0 mm 0.00 in0.0 mm
05:22 AM 75.5°F24.2°C 66.8°F19.3°C 74% 1.7 mph NW2.7 kmh NW 4.0 mph6.4 kmh 29.86 in1011.2 mb 0.00 in0.0 mm 0.00 in0.0 mm 0.00 in0.0 mm
05:27 AM 75.3°F24.1°C 66.6°F19.2°C 74% 1.6 mph NW2.6 kmh NW 3.0 mph4.8 kmh 29.86 in1011.2 mb 0.00 in0.0 mm 0.00 in0.0 mm 0.00 in0.0 mm
05:32 AM 75.3°F24.1°C 66.6°F19.2°C 74% 1.4 mph NW2.3 kmh NW 3.0 mph4.8 kmh 29.86 in1011.2 mb 0.00 in0.0 mm 0.00 in0.0 mm 0.00 in0.0 mm
05:37 AM 75.5°F24.2°C 66.8°F19.3°C 74% 1.7 mph NW2.7 kmh NW 5.0 mph8.0 kmh 29.86 in1011.2 mb 0.00 in0.0 mm 0.00 in0.0 mm 0.00 in0.0 mm
05:42 AM 75.6°F24.2°C 66.9°F19.4°C 74% 1.7 mph NW2.7 kmh NW 9.0 mph14.5 kmh 29.87 in1011.5 mb 0.00 in0.0 mm 0.00 in0.0 mm 0.00 in0.0 mm
05:47 AM 75.8°F24.3°C 67.1°F19.5°C 74% 2.1 mph NW3.4 kmh NW 9.0 mph14.5 kmh 29.87 in1011.5 mb 0.00 in0.0 mm 0.00 in0.0 mm 0.00 in0.0 mm
05:52 AM 75.8°F24.3°C 67.1°F19.5°C 74% 1.5 mph NW2.4 kmh NW 9.0 mph14.5 kmh 29.87 in1011.5 mb 0.00 in0.0 mm 0.00 in0.0 mm 0.00 in0.0 mm
05:57 AM 75.9°F24.4°C 67.2°F19.6°C 74% 1.9 mph NW3.1 kmh NW 9.0 mph14.5 kmh 29.87 in1011.5 mb 0.00 in0.0 mm 0.00 in0.0 mm 0.00 in0.0 mm
06:02 AM 75.9°F24.4°C 67.2°F19.6°C 74% 1.5 mph NW2.4 kmh NW 8.0 mph12.9 kmh 29.87 in1011.5 mb 0.00 in0.0 mm 0.00 in0.0 mm 0.00 in0.0 mm
06:07 AM 75.9°F24.4°C 67.0°F19.4°C 74% 1.7 mph NW2.7 kmh NW 5.0 mph8.0 kmh 29.87 in1011.5 mb 0.00 in0.0 mm 0.00 in0.0 mm 0.00 in0.0 mm
06:12 AM 75.9°F24.4°C 67.2°F19.6°C 74% 1.8 mph NW2.9 kmh NW 5.0 mph8.0 kmh 29.87 in1011.5 mb 0.00 in0.0 mm 0.00 in0.0 mm 0.00 in0.0 mm
06:17 AM 75.9°F24.4°C 67.2°F19.6°C 74% 2.4 mph NW3.9 kmh NW 6.0 mph9.7 kmh 29.87 in1011.5 mb 0.00 in0.0 mm 0.00 in0.0 mm 0.00 in0.0 mm
06:22 AM 76.0°F24.4°C 67.1°F19.5°C 74% 2.0 mph NW3.2 kmh NW 6.0 mph9.7 kmh 29.87 in1011.5 mb 0.00 in0.0 mm 0.00 in0.0 mm 0.00 in0.0 mm
06:27 AM 76.1°F24.5°C 67.4°F19.7°C 74% 2.7 mph WNW4.3 kmh WNW 9.0 mph14.5 kmh 29.87 in1011.5 mb 0.00 in0.0 mm 0.00 in0.0 mm 0.00 in0.0 mm
06:32 AM 76.1°F24.5°C 67.4°F19.7°C 74% 3.1 mph NW5.0 kmh NW 9.0 mph14.5 kmh 29.88 in1011.9 mb 0.00 in0.0 mm 0.00 in0.0 mm 0.00 in0.0 mm
06:37 AM 76.1°F24.5°C 67.4°F19.7°C 74% 3.3 mph NW5.3 kmh NW 9.0 mph14.5 kmh 29.88 in1011.9 mb 0.00 in0.0 mm 0.00 in0.0 mm 0.00 in0.0 mm
06:42 AM 76.2°F24.6°C 67.5°F19.7°C 74% 1.5 mph NW2.4 kmh NW 9.0 mph14.5 kmh 29.88 in1011.9 mb 0.00 in0.0 mm 0.00 in0.0 mm 0.00 in0.0 mm
06:47 AM 76.2°F24.6°C 67.5°F19.7°C 74% 2.4 mph NNW3.9 kmh NNW 7.0 mph11.3 kmh 29.88 in1011.9 mb 0.00 in0.0 mm 0.00 in0.0 mm 0.00 in0.0 mm
06:52 AM 76.4°F24.7°C 67.7°F19.8°C 74% 2.0 mph NW3.2 kmh NW 7.0 mph11.3 kmh 29.88 in1011.9 mb 0.00 in0.0 mm 0.00 in0.0 mm 0.00 in0.0 mm
06:57 AM 76.5°F24.7°C 67.8°F19.9°C 74% 3.3 mph NW5.3 kmh NW 7.0 mph11.3 kmh 29.89 in1012.2 mb 0.00 in0.0 mm 0.00 in0.0 mm 0.00 in0.0 mm
07:02 AM 76.7°F24.8°C 68.0°F20.0°C 74% 2.9 mph NW4.7 kmh NW 7.0 mph11.3 kmh 29.89 in1012.2 mb 0.00 in0.0 mm 0.00 in0.0 mm 0.00 in0.0 mm
07:07 AM 76.8°F24.9°C 67.9°F19.9°C 74% 3.5 mph NW5.6 kmh NW 8.0 mph12.9 kmh 29.89 in1012.2 mb 0.00 in0.0 mm 0.00 in0.0 mm 0.00 in0.0 mm
07:12 AM 76.7°F24.8°C 68.0°F20.0°C 74% 3.8 mph WNW6.1 kmh WNW 9.0 mph14.5 kmh 29.89 in1012.2 mb 0.00 in0.0 mm 0.00 in0.0 mm 0.00 in0.0 mm
07:17 AM 76.6°F24.8°C 67.9°F19.9°C 74% 3.9 mph NW6.3 kmh NW 9.0 mph14.5 kmh 29.89 in1012.2 mb 0.00 in0.0 mm 0.00 in0.0 mm 0.00 in0.0 mm
07:22 AM 76.7°F24.8°C 68.3°F20.2°C 75% 2.9 mph NW4.7 kmh NW 9.0 mph14.5 kmh 29.89 in1012.2 mb 0.00 in0.0 mm 0.00 in0.0 mm 0.00 in0.0 mm
07:27 AM 76.8°F24.9°C 68.3°F20.2°C 75% 5.0 mph NW8.0 kmh NW 10.0 mph16.1 kmh 29.89 in1012.2 mb 0.00 in0.0 mm 0.00 in0.0 mm 0.00 in0.0 mm
07:32 AM 77.0°F25.0°C 68.6°F20.3°C 75% 3.4 mph NW5.5 kmh NW 10.0 mph16.1 kmh 29.89 in1012.2 mb 0.00 in0.0 mm 0.00 in0.0 mm 0.00 in0.0 mm
07:37 AM 77.4°F25.2°C 69.0°F20.6°C 75% 3.1 mph NW5.0 kmh NW 10.0 mph16.1 kmh 29.89 in1012.2 mb 0.00 in0.0 mm 0.00 in0.0 mm 0.00 in0.0 mm
07:42 AM 77.9°F25.5°C 69.5°F20.8°C 75% 1.1 mph WNW1.8 kmh WNW 10.0 mph16.1 kmh 29.89 in1012.2 mb 0.00 in0.0 mm 0.00 in0.0 mm 0.00 in0.0 mm
07:47 AM 78.3°F25.7°C 69.5°F20.8°C 74% 2.1 mph NW3.4 kmh NW 9.0 mph14.5 kmh 29.89 in1012.2 mb 0.00 in0.0 mm 0.00 in0.0 mm 0.00 in0.0 mm
07:52 AM 78.4°F25.8°C 69.6°F20.9°C 74% 3.6 mph NW5.8 kmh NW 7.0 mph11.3 kmh 29.89 in1012.2 mb 0.00 in0.0 mm 0.00 in0.0 mm 0.00 in0.0 mm
07:57 AM 78.6°F25.9°C 69.8°F21.0°C 74% 3.9 mph NW6.3 kmh NW 9.0 mph14.5 kmh 29.89 in1012.2 mb 0.00 in0.0 mm 0.00 in0.0 mm 0.00 in0.0 mm
08:02 AM 78.9°F26.1°C 70.1°F21.2°C 74% 2.2 mph NNW3.5 kmh NNW 9.0 mph14.5 kmh 29.89 in1012.2 mb 0.00 in0.0 mm 0.00 in0.0 mm 0.00 in0.0 mm
08:06 AM 79.0°F26.1°C 70.0°F21.1°C 74% 2.9 mph NNW4.7 kmh NNW 9.0 mph14.5 kmh 29.89 in1012.2 mb 0.00 in0.0 mm 0.00 in0.0 mm 0.00 in0.0 mm
08:11 AM 79.0°F26.1°C 70.2°F21.2°C 74% 2.8 mph N4.5 kmh N 9.0 mph14.5 kmh 29.89 in1012.2 mb 0.00 in0.0 mm 0.00 in0.0 mm 0.00 in0.0 mm
08:16 AM 79.1°F26.2°C 70.3°F21.3°C 74% 2.8 mph NW4.5 kmh NW 9.0 mph14.5 kmh 29.89 in1012.2 mb 0.00 in0.0 mm 0.00 in0.0 mm 0.00 in0.0 mm
08:21 AM 79.2°F26.2°C 70.4°F21.3°C 74% 3.7 mph NW6.0 kmh NW 9.0 mph14.5 kmh 29.89 in1012.2 mb 0.00 in0.0 mm 0.00 in0.0 mm 0.00 in0.0 mm
08:26 AM 79.3°F26.3°C 70.5°F21.4°C 74% 5.1 mph NW8.2 kmh NW 9.0 mph14.5 kmh 29.89 in1012.2 mb 0.00 in0.0 mm 0.00 in0.0 mm 0.00 in0.0 mm
08:31 AM 79.6°F26.4°C 70.8°F21.6°C 74% 4.5 mph NW7.2 kmh NW 10.0 mph16.1 kmh 29.89 in1012.2 mb 0.00 in0.0 mm 0.00 in0.0 mm 0.00 in0.0 mm
08:36 AM 80.0°F26.7°C 70.8°F21.6°C 73% 3.3 mph NW5.3 kmh NW 14.0 mph22.5 kmh 29.89 in1012.2 mb 0.00 in0.0 mm 0.00 in0.0 mm 0.00 in0.0 mm
08:41 AM 80.5°F26.9°C 71.2°F21.8°C 73% 2.9 mph NW4.7 kmh NW 14.0 mph22.5 kmh 29.89 in1012.2 mb 0.00 in0.0 mm 0.00 in0.0 mm 0.00 in0.0 mm
08:46 AM 81.1°F27.3°C 71.6°F22.0°C 73% 1.5 mph NW2.4 kmh NW 14.0 mph22.5 kmh 29.89 in1012.2 mb 0.00 in0.0 mm 0.00 in0.0 mm 0.00 in0.0 mm
08:51 AM 82.0°F27.8°C 71.7°F22.1°C 71% 3.4 mph N5.5 kmh N 14.0 mph22.5 kmh 29.89 in1012.2 mb 0.00 in0.0 mm 0.00 in0.0 mm 0.00 in0.0 mm
08:56 AM 82.5°F28.1°C 72.0°F22.2°C 70% 2.3 mph NW3.7 kmh NW 8.0 mph12.9 kmh 29.89 in1012.2 mb 0.00 in0.0 mm 0.00 in0.0 mm 0.00 in0.0 mm
09:01 AM 82.4°F28.0°C 71.9°F22.2°C 70% 3.6 mph NW5.8 kmh NW 8.0 mph12.9 kmh 29.89 in1012.2 mb 0.00 in0.0 mm 0.00 in0.0 mm 0.00 in0.0 mm
09:06 AM 82.5°F28.1°C 72.0°F22.2°C 70% 3.1 mph NW5.0 kmh NW 10.0 mph16.1 kmh 29.89 in1012.2 mb 0.00 in0.0 mm 0.00 in0.0 mm 0.00 in0.0 mm
09:11 AM 82.5°F28.1°C 72.0°F22.2°C 70% 4.2 mph NW6.8 kmh NW 10.0 mph16.1 kmh 29.89 in1012.2 mb 0.00 in0.0 mm 0.00 in0.0 mm 0.00 in0.0 mm
09:16 AM 82.5°F28.1°C 72.0°F22.2°C 70% 4.4 mph NW7.1 kmh NW 10.0 mph16.1 kmh 29.89 in1012.2 mb 0.00 in0.0 mm 0.00 in0.0 mm 0.00 in0.0 mm
09:21 AM 82.5°F28.1°C 72.0°F22.2°C 70% 2.8 mph N4.5 kmh N 11.0 mph17.7 kmh 29.89 in1012.2 mb 0.00 in0.0 mm 0.00 in0.0 mm 0.00 in0.0 mm
09:26 AM 82.5°F28.1°C 72.4°F22.4°C 71% 3.8 mph NW6.1 kmh NW 11.0 mph17.7 kmh 29.89 in1012.2 mb 0.00 in0.0 mm 0.00 in0.0 mm 0.00 in0.0 mm
09:31 AM 82.8°F28.2°C 71.8°F22.1°C 69% 6.2 mph NW10.0 kmh NW 14.0 mph22.5 kmh 29.89 in1012.2 mb 0.00 in0.0 mm 0.00 in0.0 mm 0.00 in0.0 mm
09:36 AM 83.0°F28.3°C 72.0°F22.2°C 69% 3.6 mph NNW5.8 kmh NNW 14.0 mph22.5 kmh 29.88 in1011.9 mb 0.00 in0.0 mm 0.00 in0.0 mm 0.00 in0.0 mm
09:41 AM 83.1°F28.4°C 72.1°F22.3°C 69% 4.4 mph N7.1 kmh N 14.0 mph22.5 kmh 29.88 in1011.9 mb 0.00 in0.0 mm 0.00 in0.0 mm 0.00 in0.0 mm
09:46 AM 83.2°F28.4°C 71.8°F22.1°C 68% 4.2 mph NW6.8 kmh NW 14.0 mph22.5 kmh 29.88 in1011.9 mb 0.00 in0.0 mm 0.00 in0.0 mm 0.00 in0.0 mm
09:51 AM 83.3°F28.5°C 72.7°F22.6°C 70% 2.2 mph NW3.5 kmh NW 9.0 mph14.5 kmh 29.88 in1011.9 mb 0.00 in0.0 mm 0.00 in0.0 mm 0.00 in0.0 mm
09:56 AM 83.7°F28.7°C 72.7°F22.6°C 69% 3.2 mph N5.1 kmh N 9.0 mph14.5 kmh 29.88 in1011.9 mb 0.00 in0.0 mm 0.00 in0.0 mm 0.00 in0.0 mm
10:01 AM 83.6°F28.7°C 72.2°F22.3°C 68% 3.6 mph NW5.8 kmh NW 10.0 mph16.1 kmh 29.88 in1011.9 mb 0.00 in0.0 mm 0.00 in0.0 mm 0.00 in0.0 mm
10:06 AM 83.9°F28.8°C 72.2°F22.3°C 68% 5.4 mph NW8.7 kmh NW 13.0 mph20.9 kmh 29.88 in1011.9 mb 0.00 in0.0 mm 0.00 in0.0 mm 0.00 in0.0 mm
10:11 AM 84.3°F29.1°C 72.8°F22.7°C 68% 2.8 mph N4.5 kmh N 13.0 mph20.9 kmh 29.88 in1011.9 mb 0.00 in0.0 mm 0.00 in0.0 mm 0.00 in0.0 mm
10:16 AM 84.7°F29.3°C 72.8°F22.7°C 67% 4.6 mph NW7.4 kmh NW 13.0 mph20.9 kmh 29.87 in1011.5 mb 0.00 in0.0 mm 0.00 in0.0 mm 0.00 in0.0 mm
10:21 AM 85.1°F29.5°C 72.7°F22.6°C 66% 4.6 mph NNW7.4 kmh NNW 13.0 mph20.9 kmh 29.87 in1011.5 mb 0.00 in0.0 mm 0.00 in0.0 mm 0.00 in0.0 mm
10:26 AM 85.1°F29.5°C 72.5°F22.5°C 66% 3.8 mph N6.1 kmh N 10.0 mph16.1 kmh 29.87 in1011.5 mb 0.00 in0.0 mm 0.00 in0.0 mm 0.00 in0.0 mm
10:31 AM 85.3°F29.6°C 72.6°F22.6°C 66% 3.0 mph N4.8 kmh N 10.0 mph16.1 kmh 29.87 in1011.5 mb 0.00 in0.0 mm 0.00 in0.0 mm 0.00 in0.0 mm
10:36 AM 85.5°F29.7°C 72.7°F22.6°C 65% 3.5 mph NNE5.6 kmh NNE 9.0 mph14.5 kmh 29.87 in1011.5 mb 0.00 in0.0 mm 0.00 in0.0 mm 0.00 in0.0 mm
10:41 AM 85.8°F29.9°C 73.0°F22.8°C 65% 3.6 mph NNW5.8 kmh NNW 8.0 mph12.9 kmh 29.87 in1011.5 mb 0.00 in0.0 mm 0.00 in0.0 mm 0.00 in0.0 mm
10:46 AM 85.9°F29.9°C 72.3°F22.4°C 64% 4.7 mph NW7.6 kmh NW 9.0 mph14.5 kmh 29.87 in1011.5 mb 0.00 in0.0 mm 0.00 in0.0 mm 0.00 in0.0 mm
10:51 AM 86.6°F30.3°C 73.7°F23.2°C 65% 1.9 mph N3.1 kmh N 9.0 mph14.5 kmh 29.87 in1011.5 mb 0.00 in0.0 mm 0.00 in0.0 mm 0.00 in0.0 mm
10:56 AM 86.7°F30.4°C 72.6°F22.6°C 63% 3.6 mph NW5.8 kmh NW 9.0 mph14.5 kmh 29.87 in1011.5 mb 0.00 in0.0 mm 0.00 in0.0 mm 0.00 in0.0 mm
11:01 AM 86.5°F30.3°C 72.7°F22.6°C 63% 2.8 mph NW4.5 kmh NW 11.0 mph17.7 kmh 29.87 in1011.5 mb 0.00 in0.0 mm 0.00 in0.0 mm 0.00 in0.0 mm
11:06 AM 86.5°F30.3°C 72.7°F22.6°C 63% 2.6 mph NW4.2 kmh NW 11.0 mph17.7 kmh 29.86 in1011.2 mb 0.00 in0.0 mm 0.00 in0.0 mm 0.00 in0.0 mm
11:11 AM 86.6°F30.3°C 72.3°F22.4°C 62% 2.8 mph W4.5 kmh W 11.0 mph17.7 kmh 29.86 in1011.2 mb 0.00 in0.0 mm 0.00 in0.0 mm 0.00 in0.0 mm
11:16 AM 87.2°F30.7°C 72.4°F22.4°C 61% 4.4 mph NW7.1 kmh NW 11.0 mph17.7 kmh 29.86 in1011.2 mb 0.00 in0.0 mm 0.00 in0.0 mm 0.00 in0.0 mm
11:21 AM 87.9°F31.1°C 72.6°F22.6°C 60% 3.2 mph N5.1 kmh N 10.0 mph16.1 kmh 29.86 in1011.2 mb 0.00 in0.0 mm 0.00 in0.0 mm 0.00 in0.0 mm
11:26 AM 87.6°F30.9°C 71.8°F22.1°C 59% 3.2 mph NNW5.1 kmh NNW 13.0 mph20.9 kmh 29.86 in1011.2 mb 0.00 in0.0 mm 0.00 in0.0 mm 0.00 in0.0 mm
11:31 AM 87.7°F30.9°C 70.6°F21.4°C 57% 5.8 mph WNW9.3 kmh WNW 13.0 mph20.9 kmh 29.86 in1011.2 mb 0.00 in0.0 mm 0.00 in0.0 mm 0.00 in0.0 mm
11:36 AM 87.7°F30.9°C 71.9°F22.2°C 59% 4.7 mph NW7.6 kmh NW 13.0 mph20.9 kmh 29.86 in1011.2 mb 0.00 in0.0 mm 0.00 in0.0 mm 0.00 in0.0 mm
11:41 AM 88.3°F31.3°C 72.9°F22.7°C 60% 3.1 mph NNW5.0 kmh NNW 13.0 mph20.9 kmh 29.86 in1011.2 mb 0.00 in0.0 mm 0.00 in0.0 mm 0.00 in0.0 mm
11:46 AM 88.4°F31.3°C 71.0°F21.7°C 56% 5.9 mph NNW9.5 kmh NNW 15.0 mph24.1 kmh 29.86 in1011.2 mb 0.00 in0.0 mm 0.00 in0.0 mm 0.00 in0.0 mm
11:51 AM 88.1°F31.2°C 71.7°F22.1°C 58% 3.5 mph NW5.6 kmh NW 15.0 mph24.1 kmh 29.86 in1011.2 mb 0.00 in0.0 mm 0.00 in0.0 mm 0.00 in0.0 mm
11:56 AM 88.0°F31.1°C 69.8°F21.0°C 55% 7.4 mph NW11.9 kmh NW 15.0 mph24.1 kmh 29.86 in1011.2 mb 0.00 in0.0 mm 0.00 in0.0 mm 0.00 in0.0 mm
12:01 PM 88.1°F31.2°C 70.1°F21.2°C 55% 3.9 mph NW6.3 kmh NW 15.0 mph24.1 kmh 29.86 in1011.2 mb 0.00 in0.0 mm 0.00 in0.0 mm 0.00 in0.0 mm
12:06 PM 88.6°F31.4°C 68.9°F20.5°C 52% 5.8 mph NNW9.3 kmh NNW 14.0 mph22.5 kmh 29.86 in1011.2 mb 0.00 in0.0 mm 0.00 in0.0 mm 0.00 in0.0 mm
12:11 PM 88.7°F31.5°C 67.2°F19.6°C 49% 4.7 mph NW7.6 kmh NW 16.0 mph25.7 kmh 29.86 in1011.2 mb 0.00 in0.0 mm 0.00 in0.0 mm 0.00 in0.0 mm
12:16 PM 89.1°F31.7°C 66.9°F19.4°C 48% 4.5 mph N7.2 kmh N 16.0 mph25.7 kmh 29.86 in1011.2 mb 0.00 in0.0 mm 0.00 in0.0 mm 0.00 in0.0 mm
12:21 PM 89.6°F32.0°C 66.8°F19.3°C 47% 3.3 mph NW5.3 kmh NW 16.0 mph25.7 kmh 29.85 in1010.8 mb 0.00 in0.0 mm 0.00 in0.0 mm 0.00 in0.0 mm
12:26 PM 90.0°F32.2°C 65.9°F18.8°C 45% 4.5 mph NW7.2 kmh NW 16.0 mph25.7 kmh 29.85 in1010.8 mb 0.00 in0.0 mm 0.00 in0.0 mm 0.00 in0.0 mm
12:31 PM 90.6°F32.6°C 66.4°F19.1°C 45% 3.5 mph NNE5.6 kmh NNE 13.0 mph20.9 kmh 29.85 in1010.8 mb 0.00 in0.0 mm 0.00 in0.0 mm 0.00 in0.0 mm
12:36 PM 91.0°F32.8°C 66.8°F19.3°C 45% 3.6 mph NNE5.8 kmh NNE 12.0 mph19.3 kmh 29.85 in1010.8 mb 0.00 in0.0 mm 0.00 in0.0 mm 0.00 in0.0 mm
12:41 PM 91.3°F32.9°C 65.7°F18.7°C 43% 2.9 mph NNE4.7 kmh NNE 10.0 mph16.1 kmh 29.85 in1010.8 mb 0.00 in0.0 mm 0.00 in0.0 mm 0.00 in0.0 mm
12:46 PM 91.5°F33.1°C 64.5°F18.1°C 41% 4.4 mph NE7.1 kmh NE 12.0 mph19.3 kmh 29.84 in1010.5 mb 0.00 in0.0 mm 0.00 in0.0 mm 0.00 in0.0 mm
12:52 PM 91.6°F33.1°C 63.9°F17.7°C 40% 2.1 mph NW3.4 kmh NW 12.0 mph19.3 kmh 29.84 in1010.5 mb 0.00 in0.0 mm 0.00 in0.0 mm 0.00 in0.0 mm
12:56 PM 91.6°F33.1°C 63.9°F17.7°C 40% 4.6 mph NE7.4 kmh NE 12.0 mph19.3 kmh 29.84 in1010.5 mb 0.00 in0.0 mm 0.00 in0.0 mm 0.00 in0.0 mm
01:02 PM 92.1°F33.4°C 64.3°F17.9°C 40% 2.4 mph NE3.9 kmh NE 12.0 mph19.3 kmh 29.84 in1010.5 mb 0.00 in0.0 mm 0.00 in0.0 mm 0.00 in0.0 mm
01:05 PM 93.2°F34.0°C 63.8°F17.7°C 38% 3.3 mph NNE5.3 kmh NNE 11.0 mph17.7 kmh 29.83 in1010.2 mb 0.00 in0.0 mm 0.00 in0.0 mm 0.00 in0.0 mm
01:11 PM 93.2°F34.0°C 59.7°F15.4°C 33% 6.2 mph NNW10.0 kmh NNW 15.0 mph24.1 kmh 29.83 in1010.2 mb 0.00 in0.0 mm 0.00 in0.0 mm 0.00 in0.0 mm
01:15 PM 93.3°F34.1°C 59.0°F15.0°C 32% 4.1 mph NNE6.6 kmh NNE 15.0 mph24.1 kmh 29.83 in1010.2 mb 0.00 in0.0 mm 0.00 in0.0 mm 0.00 in0.0 mm
01:20 PM 93.8°F34.3°C 58.5°F14.7°C 31% 3.9 mph NW6.3 kmh NW 15.0 mph24.1 kmh 29.83 in1010.2 mb 0.00 in0.0 mm 0.00 in0.0 mm 0.00 in0.0 mm
01:26 PM 94.0°F34.4°C 58.7°F14.8°C 31% 2.3 mph NNE3.7 kmh NNE 15.0 mph24.1 kmh 29.83 in1010.2 mb 0.00 in0.0 mm 0.00 in0.0 mm 0.00 in0.0 mm
01:31 PM 94.1°F34.5°C 59.7°F15.4°C 32% 3.6 mph NW5.8 kmh NW 12.0 mph19.3 kmh 29.83 in1010.2 mb 0.00 in0.0 mm 0.00 in0.0 mm 0.00 in0.0 mm
01:36 PM 93.7°F34.3°C 61.0°F16.1°C 34% 5.0 mph W8.0 kmh W 14.0 mph22.5 kmh 29.83 in1010.2 mb 0.00 in0.0 mm 0.00 in0.0 mm 0.00 in0.0 mm
01:41 PM 93.6°F34.2°C 61.8°F16.6°C 35% 5.3 mph NW8.5 kmh NW 14.0 mph22.5 kmh 29.82 in1009.8 mb 0.00 in0.0 mm 0.00 in0.0 mm 0.00 in0.0 mm
01:46 PM 93.4°F34.1°C 61.6°F16.4°C 35% 9.7 mph WNW15.6 kmh WNW 19.0 mph30.6 kmh 29.82 in1009.8 mb 0.00 in0.0 mm 0.00 in0.0 mm 0.00 in0.0 mm
01:51 PM 93.5°F34.2°C 61.7°F16.5°C 35% 4.8 mph NW7.7 kmh NW 19.0 mph30.6 kmh 29.82 in1009.8 mb 0.00 in0.0 mm 0.00 in0.0 mm 0.00 in0.0 mm
01:56 PM 93.9°F34.4°C 62.8°F17.1°C 36% 4.2 mph NNW6.8 kmh NNW 19.0 mph30.6 kmh 29.82 in1009.8 mb 0.00 in0.0 mm 0.00 in0.0 mm 0.00 in0.0 mm
02:01 PM 93.8°F34.3°C 62.8°F17.1°C 36% 5.6 mph NW9.0 kmh NW 19.0 mph30.6 kmh 29.82 in1009.8 mb 0.00 in0.0 mm 0.00 in0.0 mm 0.00 in0.0 mm
02:06 PM 93.8°F34.3°C 61.9°F16.6°C 35% 4.0 mph NW6.4 kmh NW 15.0 mph24.1 kmh 29.82 in1009.8 mb 0.00 in0.0 mm 0.00 in0.0 mm 0.00 in0.0 mm
02:11 PM 94.0°F34.4°C 60.4°F15.8°C 33% 4.5 mph NW7.2 kmh NW 15.0 mph24.1 kmh 29.82 in1009.8 mb 0.00 in0.0 mm 0.00 in0.0 mm 0.00 in0.0 mm
02:16 PM 93.9°F34.4°C 60.3°F15.7°C 33% 6.7 mph NW10.8 kmh NW 15.0 mph24.1 kmh 29.82 in1009.8 mb 0.00 in0.0 mm 0.00 in0.0 mm 0.00 in0.0 mm
02:21 PM 93.9°F34.4°C 61.2°F16.2°C 34% 6.4 mph NNW10.3 kmh NNW 15.0 mph24.1 kmh 29.82 in1009.8 mb 0.00 in0.0 mm 0.00 in0.0 mm 0.00 in0.0 mm
02:26 PM 94.0°F34.4°C 62.9°F17.2°C 36% 3.6 mph N5.8 kmh N 15.0 mph24.1 kmh 29.81 in1009.5 mb 0.00 in0.0 mm 0.00 in0.0 mm 0.00 in0.0 mm
02:31 PM 93.9°F34.4°C 62.8°F17.1°C 36% 4.2 mph NW6.8 kmh NW 15.0 mph24.1 kmh 29.81 in1009.5 mb 0.00 in0.0 mm 0.00 in0.0 mm 0.00 in0.0 mm
02:36 PM 94.0°F34.4°C 62.1°F16.7°C 35% 6.6 mph NW10.6 kmh NW 17.0 mph27.4 kmh 29.81 in1009.5 mb 0.00 in0.0 mm 0.00 in0.0 mm 0.00 in0.0 mm
02:41 PM 93.8°F34.3°C 62.0°F16.7°C 35% 4.9 mph NNW7.9 kmh NNW 17.0 mph27.4 kmh 29.81 in1009.5 mb 0.00 in0.0 mm 0.00 in0.0 mm 0.00 in0.0 mm
02:46 PM 94.0°F34.4°C 62.1°F16.7°C 35% 4.1 mph NNW6.6 kmh NNW 17.0 mph27.4 kmh 29.80 in1009.1 mb 0.00 in0.0 mm 0.00 in0.0 mm 0.00 in0.0 mm
02:51 PM 94.1°F34.5°C 60.5°F15.8°C 33% 4.5 mph WNW7.2 kmh WNW 17.0 mph27.4 kmh 29.80 in1009.1 mb 0.00 in0.0 mm 0.00 in0.0 mm 0.00 in0.0 mm
02:56 PM 94.2°F34.6°C 60.7°F15.9°C 33% 3.0 mph NW4.8 kmh NW 14.0 mph22.5 kmh 29.80 in1009.1 mb 0.00 in0.0 mm 0.00 in0.0 mm 0.00 in0.0 mm
03:01 PM 94.2°F34.6°C 59.7°F15.4°C 32% 5.8 mph W9.3 kmh W 14.0 mph22.5 kmh 29.80 in1009.1 mb 0.00 in0.0 mm 0.00 in0.0 mm 0.00 in0.0 mm
03:06 PM 94.2°F34.6°C 60.6°F15.9°C 33% 4.5 mph NNW7.2 kmh NNW 14.0 mph22.5 kmh 29.80 in1009.1 mb 0.00 in0.0 mm 0.00 in0.0 mm 0.00 in0.0 mm
03:11 PM 94.2°F34.6°C 60.6°F15.9°C 33% 4.6 mph N7.4 kmh N 14.0 mph22.5 kmh 29.80 in1009.1 mb 0.00 in0.0 mm 0.00 in0.0 mm 0.00 in0.0 mm
03:16 PM 94.3°F34.6°C 62.4°F16.9°C 35% 2.7 mph WNW4.3 kmh WNW 12.0 mph19.3 kmh 29.80 in1009.1 mb 0.00 in0.0 mm 0.00 in0.0 mm 0.00 in0.0 mm
03:21 PM 93.9°F34.4°C 62.0°F16.7°C 35% 6.4 mph WNW10.3 kmh WNW 12.0 mph19.3 kmh 29.80 in1009.1 mb 0.00 in0.0 mm 0.00 in0.0 mm 0.00 in0.0 mm
03:26 PM 93.7°F34.3°C 62.7°F17.1°C 36% 4.6 mph NW7.4 kmh NW 14.0 mph22.5 kmh 29.80 in1009.1 mb 0.00 in0.0 mm 0.00 in0.0 mm 0.00 in0.0 mm
03:31 PM 94.1°F34.5°C 61.4°F16.3°C 34% 7.3 mph NW11.7 kmh NW 14.0 mph22.5 kmh 29.80 in1009.1 mb 0.00 in0.0 mm 0.00 in0.0 mm 0.00 in0.0 mm
03:36 PM 94.0°F34.4°C 62.1°F16.7°C 35% 4.1 mph NW6.6 kmh NW 14.0 mph22.5 kmh 29.80 in1009.1 mb 0.00 in0.0 mm 0.00 in0.0 mm 0.00 in0.0 mm
03:41 PM 94.0°F34.4°C 63.0°F17.2°C 36% 3.1 mph NW5.0 kmh NW 14.0 mph22.5 kmh 29.80 in1009.1 mb 0.00 in0.0 mm 0.00 in0.0 mm 0.00 in0.0 mm
03:46 PM 94.0°F34.4°C 62.9°F17.2°C 36% 4.3 mph N6.9 kmh N 14.0 mph22.5 kmh 29.80 in1009.1 mb 0.00 in0.0 mm 0.00 in0.0 mm 0.00 in0.0 mm
03:51 PM 93.8°F34.3°C 63.5°F17.5°C 37% 4.0 mph N6.4 kmh N 13.0 mph20.9 kmh 29.80 in1009.1 mb 0.00 in0.0 mm 0.00 in0.0 mm 0.00 in0.0 mm
03:56 PM 94.0°F34.4°C 63.7°F17.6°C 37% 2.4 mph NW3.9 kmh NW 13.0 mph20.9 kmh 29.80 in1009.1 mb 0.00 in0.0 mm 0.00 in0.0 mm 0.00 in0.0 mm
04:01 PM 94.0°F34.4°C 63.8°F17.7°C 37% 3.4 mph NW5.5 kmh NW 16.0 mph25.7 kmh 29.80 in1009.1 mb 0.00 in0.0 mm 0.00 in0.0 mm 0.00 in0.0 mm
04:06 PM 93.9°F34.4°C 62.9°F17.2°C 36% 5.6 mph NW9.0 kmh NW 16.0 mph25.7 kmh 29.80 in1009.1 mb 0.00 in0.0 mm 0.00 in0.0 mm 0.00 in0.0 mm
04:11 PM 93.6°F34.2°C 63.4°F17.4°C 37% 5.8 mph WNW9.3 kmh WNW 19.0 mph30.6 kmh 29.80 in1009.1 mb 0.00 in0.0 mm 0.00 in0.0 mm 0.00 in0.0 mm
04:16 PM 93.8°F34.3°C 63.5°F17.5°C 37% 4.2 mph NW6.8 kmh NW 19.0 mph30.6 kmh 29.80 in1009.1 mb 0.00 in0.0 mm 0.00 in0.0 mm 0.00 in0.0 mm
04:21 PM 93.8°F34.3°C 62.8°F17.1°C 36% 6.8 mph WNW10.9 kmh WNW 19.0 mph30.6 kmh 29.80 in1009.1 mb 0.00 in0.0 mm 0.00 in0.0 mm 0.00 in0.0 mm
04:26 PM 93.6°F34.2°C 63.4°F17.4°C 37% 3.6 mph NW5.8 kmh NW 16.0 mph25.7 kmh 29.80 in1009.1 mb 0.00 in0.0 mm 0.00 in0.0 mm 0.00 in0.0 mm
04:31 PM 93.7°F34.3°C 63.5°F17.5°C 37% 4.4 mph WNW7.1 kmh WNW 16.0 mph25.7 kmh 29.80 in1009.1 mb 0.00 in0.0 mm 0.00 in0.0 mm 0.00 in0.0 mm
04:36 PM 93.5°F34.2°C 63.3°F17.4°C 37% 4.9 mph NW7.9 kmh NW 16.0 mph25.7 kmh 29.80 in1009.1 mb 0.00 in0.0 mm 0.00 in0.0 mm 0.00 in0.0 mm
04:41 PM 93.7°F34.3°C 62.7°F17.1°C 36% 2.8 mph NW4.5 kmh NW 15.0 mph24.1 kmh 29.80 in1009.1 mb 0.00 in0.0 mm 0.00 in0.0 mm 0.00 in0.0 mm
04:46 PM 93.7°F34.3°C 63.5°F17.5°C 37% 3.4 mph WNW5.5 kmh WNW 15.0 mph24.1 kmh 29.80 in1009.1 mb 0.00 in0.0 mm 0.00 in0.0 mm 0.00 in0.0 mm
04:51 PM 93.8°F34.3°C 62.8°F17.1°C 36% 4.1 mph WNW6.6 kmh WNW 15.0 mph24.1 kmh 29.80 in1009.1 mb 0.00 in0.0 mm 0.00 in0.0 mm 0.00 in0.0 mm
04:56 PM 93.5°F34.2°C 62.5°F16.9°C 36% 6.9 mph NW11.1 kmh NW 14.0 mph22.5 kmh 29.80 in1009.1 mb 0.00 in0.0 mm 0.00 in0.0 mm 0.00 in0.0 mm
05:01 PM 93.4°F34.1°C 63.2°F17.3°C 37% 4.2 mph NW6.8 kmh NW 14.0 mph22.5 kmh 29.80 in1009.1 mb 0.00 in0.0 mm 0.00 in0.0 mm 0.00 in0.0 mm
05:06 PM 93.2°F34.0°C 62.2°F16.8°C 36% 5.1 mph WNW8.2 kmh WNW 15.0 mph24.1 kmh 29.80 in1009.1 mb 0.00 in0.0 mm 0.00 in0.0 mm 0.00 in0.0 mm
05:11 PM 93.1°F33.9°C 62.1°F16.7°C 36% 3.5 mph WNW5.6 kmh WNW 15.0 mph24.1 kmh 29.80 in1009.1 mb 0.00 in0.0 mm 0.00 in0.0 mm 0.00 in0.0 mm
05:16 PM 93.1°F33.9°C 62.2°F16.8°C 36% 4.6 mph WNW7.4 kmh WNW 15.0 mph24.1 kmh 29.80 in1009.1 mb 0.00 in0.0 mm 0.00 in0.0 mm 0.00 in0.0 mm
05:21 PM 93.2°F34.0°C 62.2°F16.8°C 36% 4.0 mph NW6.4 kmh NW 15.0 mph24.1 kmh 29.80 in1009.1 mb 0.00 in0.0 mm 0.00 in0.0 mm 0.00 in0.0 mm
05:26 PM 93.1°F33.9°C 62.9°F17.2°C 37% 4.9 mph WNW7.9 kmh WNW 14.0 mph22.5 kmh 29.80 in1009.1 mb 0.00 in0.0 mm 0.00 in0.0 mm 0.00 in0.0 mm
05:31 PM 92.8°F33.8°C 62.7°F17.1°C 37% 4.8 mph WNW7.7 kmh WNW 14.0 mph22.5 kmh 29.80 in1009.1 mb 0.00 in0.0 mm 0.00 in0.0 mm 0.00 in0.0 mm
05:36 PM 92.6°F33.7°C 62.5°F16.9°C 37% 5.6 mph NW9.0 kmh NW 14.0 mph22.5 kmh 29.80 in1009.1 mb 0.00 in0.0 mm 0.00 in0.0 mm 0.00 in0.0 mm
05:41 PM 92.6°F33.7°C 63.3°F17.4°C 38% 4.0 mph WNW6.4 kmh WNW 14.0 mph22.5 kmh 29.81 in1009.5 mb 0.00 in0.0 mm 0.00 in0.0 mm 0.00 in0.0 mm
05:46 PM 92.5°F33.6°C 62.4°F16.9°C 37% 6.1 mph WNW9.8 kmh WNW 13.0 mph20.9 kmh 29.80 in1009.1 mb 0.00 in0.0 mm 0.00 in0.0 mm 0.00 in0.0 mm
05:51 PM 92.3°F33.5°C 62.2°F16.8°C 37% 6.9 mph WNW11.1 kmh WNW 14.0 mph22.5 kmh 29.81 in1009.5 mb 0.00 in0.0 mm 0.00 in0.0 mm 0.00 in0.0 mm
05:56 PM 92.2°F33.4°C 62.1°F16.7°C 37% 3.6 mph WNW5.8 kmh WNW 14.0 mph22.5 kmh 29.81 in1009.5 mb 0.00 in0.0 mm 0.00 in0.0 mm 0.00 in0.0 mm
06:01 PM 92.2°F33.4°C 62.9°F17.2°C 38% 3.2 mph WNW5.1 kmh WNW 14.0 mph22.5 kmh 29.80 in1009.1 mb 0.00 in0.0 mm 0.00 in0.0 mm 0.00 in0.0 mm
06:05 PM 91.9°F33.3°C 61.9°F16.6°C 37% 5.2 mph NW8.4 kmh NW 14.0 mph22.5 kmh 29.81 in1009.5 mb 0.00 in0.0 mm 0.00 in0.0 mm 0.00 in0.0 mm
06:10 PM 91.8°F33.2°C 62.5°F16.9°C 38% 4.0 mph NW6.4 kmh NW 11.0 mph17.7 kmh 29.80 in1009.1 mb 0.00 in0.0 mm 0.00 in0.0 mm 0.00 in0.0 mm
06:15 PM 91.5°F33.1°C 62.3°F16.8°C 38% 4.6 mph NW7.4 kmh NW 11.0 mph17.7 kmh 29.80 in1009.1 mb 0.00 in0.0 mm 0.00 in0.0 mm 0.00 in0.0 mm
06:20 PM 91.4°F33.0°C 62.2°F16.8°C 38% 2.5 mph NW4.0 kmh NW 11.0 mph17.7 kmh 29.80 in1009.1 mb 0.00 in0.0 mm 0.00 in0.0 mm 0.00 in0.0 mm
06:25 PM 91.1°F32.8°C 62.7°F17.1°C 39% 4.2 mph NW6.8 kmh NW 9.0 mph14.5 kmh 29.80 in1009.1 mb 0.00 in0.0 mm 0.00 in0.0 mm 0.00 in0.0 mm
06:30 PM 91.0°F32.8°C 62.6°F17.0°C 39% 4.4 mph NW7.1 kmh NW 10.0 mph16.1 kmh 29.81 in1009.5 mb 0.00 in0.0 mm 0.00 in0.0 mm 0.00 in0.0 mm
06:35 PM 90.6°F32.6°C 62.2°F16.8°C 39% 3.4 mph WNW5.5 kmh WNW 10.0 mph16.1 kmh 29.81 in1009.5 mb 0.00 in0.0 mm 0.00 in0.0 mm 0.00 in0.0 mm
06:40 PM 90.2°F32.3°C 62.6°F17.0°C 40% 3.1 mph WNW5.0 kmh WNW 10.0 mph16.1 kmh 29.81 in1009.5 mb 0.00 in0.0 mm 0.00 in0.0 mm 0.00 in0.0 mm
06:45 PM 89.7°F32.1°C 62.9°F17.2°C 41% 3.7 mph NW6.0 kmh NW 10.0 mph16.1 kmh 29.81 in1009.5 mb 0.00 in0.0 mm 0.00 in0.0 mm 0.00 in0.0 mm
06:50 PM 89.3°F31.8°C 63.2°F17.3°C 42% 2.7 mph WNW4.3 kmh WNW 9.0 mph14.5 kmh 29.81 in1009.5 mb 0.00 in0.0 mm 0.00 in0.0 mm 0.00 in0.0 mm
06:55 PM 88.9°F31.6°C 62.9°F17.2°C 42% 3.5 mph NW5.6 kmh NW 9.0 mph14.5 kmh 29.81 in1009.5 mb 0.00 in0.0 mm 0.00 in0.0 mm 0.00 in0.0 mm
07:00 PM 88.6°F31.4°C 62.6°F17.0°C 42% 3.0 mph NW4.8 kmh NW 9.0 mph14.5 kmh 29.82 in1009.8 mb 0.00 in0.0 mm 0.00 in0.0 mm 0.00 in0.0 mm
07:05 PM 88.3°F31.3°C 62.3°F16.8°C 42% 3.4 mph WNW5.5 kmh WNW 9.0 mph14.5 kmh 29.82 in1009.8 mb 0.00 in0.0 mm 0.00 in0.0 mm 0.00 in0.0 mm
07:10 PM 88.1°F31.2°C 62.8°F17.1°C 43% 2.8 mph WNW4.5 kmh WNW 8.0 mph12.9 kmh 29.82 in1009.8 mb 0.00 in0.0 mm 0.00 in0.0 mm 0.00 in0.0 mm
07:15 PM 87.8°F31.0°C 62.5°F16.9°C 43% 3.0 mph WNW4.8 kmh WNW 8.0 mph12.9 kmh 29.82 in1009.8 mb 0.00 in0.0 mm 0.00 in0.0 mm 0.00 in0.0 mm
07:20 PM 87.4°F30.8°C 62.9°F17.2°C 44% 3.0 mph WNW4.8 kmh WNW 8.0 mph12.9 kmh 29.82 in1009.8 mb 0.00 in0.0 mm 0.00 in0.0 mm 0.00 in0.0 mm
07:25 PM 87.1°F30.6°C 63.2°F17.3°C 45% 2.1 mph W3.4 kmh W 8.0 mph12.9 kmh 29.82 in1009.8 mb 0.00 in0.0 mm 0.00 in0.0 mm 0.00 in0.0 mm
07:30 PM 86.7°F30.4°C 62.9°F17.2°C 45% 1.9 mph NW3.1 kmh NW 7.0 mph11.3 kmh 29.82 in1009.8 mb 0.00 in0.0 mm 0.00 in0.0 mm 0.00 in0.0 mm
07:35 PM 86.4°F30.2°C 62.6°F17.0°C 45% 2.1 mph WNW3.4 kmh WNW 7.0 mph11.3 kmh 29.82 in1009.8 mb 0.00 in0.0 mm 0.00 in0.0 mm 0.00 in0.0 mm
07:40 PM 86.1°F30.1°C 63.0°F17.2°C 46% 2.3 mph WNW3.7 kmh WNW 6.0 mph9.7 kmh 29.82 in1009.8 mb 0.00 in0.0 mm 0.00 in0.0 mm 0.00 in0.0 mm
07:45 PM 85.9°F29.9°C 62.8°F17.1°C 46% 2.8 mph WNW4.5 kmh WNW 8.0 mph12.9 kmh 29.82 in1009.8 mb 0.00 in0.0 mm 0.00 in0.0 mm 0.00 in0.0 mm
07:50 PM 85.6°F29.8°C 62.4°F16.9°C 46% 1.9 mph WNW3.1 kmh WNW 8.0 mph12.9 kmh 29.82 in1009.8 mb 0.00 in0.0 mm 0.00 in0.0 mm 0.00 in0.0 mm
07:55 PM 85.4°F29.7°C 63.0°F17.2°C 47% 1.6 mph WNW2.6 kmh WNW 8.0 mph12.9 kmh 29.82 in1009.8 mb 0.00 in0.0 mm 0.00 in0.0 mm 0.00 in0.0 mm
08:00 PM 85.1°F29.5°C 62.7°F17.1°C 47% 2.4 mph WNW3.9 kmh WNW 8.0 mph12.9 kmh 29.83 in1010.2 mb 0.00 in0.0 mm 0.00 in0.0 mm 0.00 in0.0 mm
08:05 PM 84.9°F29.4°C 62.5°F16.9°C 47% 2.3 mph WNW3.7 kmh WNW 6.0 mph9.7 kmh 29.83 in1010.2 mb 0.00 in0.0 mm 0.00 in0.0 mm 0.00 in0.0 mm
08:10 PM 84.6°F29.2°C 62.9°F17.2°C 48% 1.8 mph WNW2.9 kmh WNW 6.0 mph9.7 kmh 29.83 in1010.2 mb 0.00 in0.0 mm 0.00 in0.0 mm 0.00 in0.0 mm
08:15 PM 84.3°F29.1°C 62.6°F17.0°C 48% 3.2 mph WNW5.1 kmh WNW 6.0 mph9.7 kmh 29.83 in1010.2 mb 0.00 in0.0 mm 0.00 in0.0 mm 0.00 in0.0 mm
08:20 PM 84.1°F28.9°C 62.3°F16.8°C 48% 2.8 mph NW4.5 kmh NW 7.0 mph11.3 kmh 29.83 in1010.2 mb 0.00 in0.0 mm 0.00 in0.0 mm 0.00 in0.0 mm
08:25 PM 84.0°F28.9°C 62.3°F16.8°C 48% 3.8 mph WNW6.1 kmh WNW 8.0 mph12.9 kmh 29.83 in1010.2 mb 0.00 in0.0 mm 0.00 in0.0 mm 0.00 in0.0 mm
08:30 PM 83.8°F28.8°C 62.7°F17.1°C 49% 2.5 mph WNW4.0 kmh WNW 8.0 mph12.9 kmh 29.84 in1010.5 mb 0.00 in0.0 mm 0.00 in0.0 mm 0.00 in0.0 mm
08:35 PM 83.7°F28.7°C 61.9°F16.6°C 48% 2.2 mph WNW3.5 kmh WNW 8.0 mph12.9 kmh 29.84 in1010.5 mb 0.00 in0.0 mm 0.00 in0.0 mm 0.00 in0.0 mm
08:40 PM 83.7°F28.7°C 62.0°F16.7°C 48% 4.2 mph NW6.8 kmh NW 8.0 mph12.9 kmh 29.84 in1010.5 mb 0.00 in0.0 mm 0.00 in0.0 mm 0.00 in0.0 mm
08:45 PM 83.6°F28.7°C 61.8°F16.6°C 48% 2.7 mph NW4.3 kmh NW 10.0 mph16.1 kmh 29.84 in1010.5 mb 0.00 in0.0 mm 0.00 in0.0 mm 0.00 in0.0 mm
08:50 PM 83.4°F28.6°C 61.7°F16.5°C 48% 2.6 mph NW4.2 kmh NW 10.0 mph16.1 kmh 29.84 in1010.5 mb 0.00 in0.0 mm 0.00 in0.0 mm 0.00 in0.0 mm
08:55 PM 83.2°F28.4°C 62.1°F16.7°C 49% 3.9 mph NW6.3 kmh NW 10.0 mph16.1 kmh 29.84 in1010.5 mb 0.00 in0.0 mm 0.00 in0.0 mm 0.00 in0.0 mm
09:00 PM 83.0°F28.3°C 62.0°F16.7°C 49% 3.0 mph NW4.8 kmh NW 10.0 mph16.1 kmh 29.84 in1010.5 mb 0.00 in0.0 mm 0.00 in0.0 mm 0.00 in0.0 mm
09:05 PM 82.8°F28.2°C 61.8°F16.6°C 49% 3.0 mph NW4.8 kmh NW 8.0 mph12.9 kmh 29.84 in1010.5 mb 0.00 in0.0 mm 0.00 in0.0 mm 0.00 in0.0 mm
09:10 PM 82.7°F28.2°C 61.7°F16.5°C 49% 3.3 mph WNW5.3 kmh WNW 8.0 mph12.9 kmh 29.84 in1010.5 mb 0.00 in0.0 mm 0.00 in0.0 mm 0.00 in0.0 mm
09:15 PM 82.6°F28.1°C 61.5°F16.4°C 49% 2.5 mph WNW4.0 kmh WNW 9.0 mph14.5 kmh 29.84 in1010.5 mb 0.00 in0.0 mm 0.00 in0.0 mm 0.00 in0.0 mm
09:20 PM 82.5°F28.1°C 61.5°F16.4°C 49% 1.8 mph NW2.9 kmh NW 9.0 mph14.5 kmh 29.84 in1010.5 mb 0.00 in0.0 mm 0.00 in0.0 mm 0.00 in0.0 mm
09:25 PM 82.4°F28.0°C 61.3°F16.3°C 49% 4.8 mph WNW7.7 kmh WNW 10.0 mph16.1 kmh 29.85 in1010.8 mb 0.00 in0.0 mm 0.00 in0.0 mm 0.00 in0.0 mm
09:30 PM 82.3°F27.9°C 61.9°F16.6°C 50% 4.3 mph NW6.9 kmh NW 11.0 mph17.7 kmh 29.85 in1010.8 mb 0.00 in0.0 mm 0.00 in0.0 mm 0.00 in0.0 mm
09:35 PM 82.1°F27.8°C 61.7°F16.5°C 50% 4.5 mph NW7.2 kmh NW 11.0 mph17.7 kmh 29.85 in1010.8 mb 0.00 in0.0 mm 0.00 in0.0 mm 0.00 in0.0 mm
09:40 PM 81.9°F27.7°C 61.6°F16.4°C 50% 3.2 mph NW5.1 kmh NW 11.0 mph17.7 kmh 29.85 in1010.8 mb 0.00 in0.0 mm 0.00 in0.0 mm 0.00 in0.0 mm
09:45 PM 81.8°F27.7°C 62.0°F16.7°C 51% 4.8 mph NW7.7 kmh NW 11.0 mph17.7 kmh 29.85 in1010.8 mb 0.00 in0.0 mm 0.00 in0.0 mm 0.00 in0.0 mm
09:50 PM 81.7°F27.6°C 62.0°F16.7°C 51% 4.3 mph NW6.9 kmh NW 10.0 mph16.1 kmh 29.85 in1010.8 mb 0.00 in0.0 mm 0.00 in0.0 mm 0.00 in0.0 mm
09:55 PM 81.6°F27.6°C 61.7°F16.5°C 51% 3.8 mph NW6.1 kmh NW 10.0 mph16.1 kmh 29.85 in1010.8 mb 0.00 in0.0 mm 0.00 in0.0 mm 0.00 in0.0 mm
10:00 PM 81.4°F27.4°C 62.2°F16.8°C 52% 2.4 mph NW3.9 kmh NW 9.0 mph14.5 kmh 29.84 in1010.5 mb 0.00 in0.0 mm 0.00 in0.0 mm 0.00 in0.0 mm
10:05 PM 81.2°F27.3°C 62.1°F16.7°C 52% 3.2 mph NW5.1 kmh NW 9.0 mph14.5 kmh 29.85 in1010.8 mb 0.00 in0.0 mm 0.00 in0.0 mm 0.00 in0.0 mm
10:10 PM 81.0°F27.2°C 61.9°F16.6°C 52% 3.3 mph NW5.3 kmh NW 9.0 mph14.5 kmh 29.85 in1010.8 mb 0.00 in0.0 mm 0.00 in0.0 mm 0.00 in0.0 mm
10:15 PM 80.9°F27.2°C 62.2°F16.8°C 53% 2.8 mph WNW4.5 kmh WNW 9.0 mph14.5 kmh 29.84 in1010.5 mb 0.00 in0.0 mm 0.00 in0.0 mm 0.00 in0.0 mm
10:20 PM 80.7°F27.1°C 62.0°F16.7°C 53% 3.2 mph WNW5.1 kmh WNW 8.0 mph12.9 kmh 29.84 in1010.5 mb 0.00 in0.0 mm 0.00 in0.0 mm 0.00 in0.0 mm
10:25 PM 80.6°F27.0°C 61.9°F16.6°C 53% 2.4 mph WNW3.9 kmh WNW 9.0 mph14.5 kmh 29.84 in1010.5 mb 0.00 in0.0 mm 0.00 in0.0 mm 0.00 in0.0 mm
10:30 PM 80.4°F26.9°C 61.9°F16.6°C 53% 3.8 mph WNW6.1 kmh WNW 9.0 mph14.5 kmh 29.84 in1010.5 mb 0.00 in0.0 mm 0.00 in0.0 mm 0.00 in0.0 mm
10:35 PM 80.4°F26.9°C 61.9°F16.6°C 53% 4.7 mph NW7.6 kmh NW 11.0 mph17.7 kmh 29.84 in1010.5 mb 0.00 in0.0 mm 0.00 in0.0 mm 0.00 in0.0 mm
10:40 PM 80.2°F26.8°C 62.2°F16.8°C 54% 3.9 mph NW6.3 kmh NW 11.0 mph17.7 kmh 29.84 in1010.5 mb 0.00 in0.0 mm 0.00 in0.0 mm 0.00 in0.0 mm
10:45 PM 80.1°F26.7°C 62.0°F16.7°C 54% 2.6 mph WNW4.2 kmh WNW 11.0 mph17.7 kmh 29.85 in1010.8 mb 0.00 in0.0 mm 0.00 in0.0 mm 0.00 in0.0 mm
10:50 PM 79.9°F26.6°C 61.9°F16.6°C 54% 3.4 mph WNW5.5 kmh WNW 11.0 mph17.7 kmh 29.84 in1010.5 mb 0.00 in0.0 mm 0.00 in0.0 mm 0.00 in0.0 mm
10:55 PM 79.8°F26.6°C 61.9°F16.6°C 54% 3.7 mph NW6.0 kmh NW 8.0 mph12.9 kmh 29.84 in1010.5 mb 0.00 in0.0 mm 0.00 in0.0 mm 0.00 in0.0 mm
11:00 PM 79.6°F26.4°C 62.2°F16.8°C 55% 3.4 mph WNW5.5 kmh WNW 7.0 mph11.3 kmh 29.84 in1010.5 mb 0.00 in0.0 mm 0.00 in0.0 mm 0.00 in0.0 mm
11:04 PM 79.5°F26.4°C 62.1°F16.7°C 55% 4.5 mph WNW7.2 kmh WNW 8.0 mph12.9 kmh 29.84 in1010.5 mb 0.00 in0.0 mm 0.00 in0.0 mm 0.00 in0.0 mm
11:09 PM 79.4°F26.3°C 62.0°F16.7°C 55% 2.8 mph WNW4.5 kmh WNW 8.0 mph12.9 kmh 29.85 in1010.8 mb 0.00 in0.0 mm 0.00 in0.0 mm 0.00 in0.0 mm
11:14 PM 79.2°F26.2°C 62.3°F16.8°C 56% 3.0 mph NW4.8 kmh NW 8.0 mph12.9 kmh 29.85 in1010.8 mb 0.00 in0.0 mm 0.00 in0.0 mm 0.00 in0.0 mm
11:19 PM 79.1°F26.2°C 62.1°F16.7°C 56% 4.0 mph WNW6.4 kmh WNW 9.0 mph14.5 kmh 29.85 in1010.8 mb 0.00 in0.0 mm 0.00 in0.0 mm 0.00 in0.0 mm
11:24 PM 79.0°F26.1°C 62.2°F16.8°C 56% 4.6 mph WNW7.4 kmh WNW 9.0 mph14.5 kmh 29.85 in1010.8 mb 0.00 in0.0 mm 0.00 in0.0 mm 0.00 in0.0 mm
11:29 PM 78.9°F26.1°C 62.1°F16.7°C 56% 4.4 mph WNW7.1 kmh WNW 11.0 mph17.7 kmh 29.85 in1010.8 mb 0.00 in0.0 mm 0.00 in0.0 mm 0.00 in0.0 mm
11:34 PM 78.8°F26.0°C 62.3°F16.8°C 57% 3.5 mph WNW5.6 kmh WNW 11.0 mph17.7 kmh 29.85 in1010.8 mb 0.00 in0.0 mm 0.00 in0.0 mm 0.00 in0.0 mm
11:39 PM 78.6°F25.9°C 62.3°F16.8°C 57% 2.7 mph WNW4.3 kmh WNW 11.0 mph17.7 kmh 29.85 in1010.8 mb 0.00 in0.0 mm 0.00 in0.0 mm 0.00 in0.0 mm
11:44 PM 78.5°F25.8°C 62.2°F16.8°C 57% 3.6 mph WNW5.8 kmh WNW 11.0 mph17.7 kmh 29.85 in1010.8 mb 0.00 in0.0 mm 0.00 in0.0 mm 0.00 in0.0 mm
11:49 PM 78.3°F25.7°C 62.5°F16.9°C 58% 2.5 mph WNW4.0 kmh WNW 11.0 mph17.7 kmh 29.85 in1010.8 mb 0.00 in0.0 mm 0.00 in0.0 mm 0.00 in0.0 mm
11:54 PM 78.1°F25.6°C 62.1°F16.7°C 58% 4.0 mph WNW6.4 kmh WNW 8.0 mph12.9 kmh 29.84 in1010.5 mb 0.00 in0.0 mm 0.00 in0.0 mm 0.00 in0.0 mm
11:59 PM 78.0°F25.6°C 62.2°F16.8°C 58% 2.2 mph WNW3.5 kmh WNW 8.0 mph12.9 kmh 29.85 in1010.8 mb 0.00 in0.0 mm 0.00 in0.0 mm 0.00 in0.0 mm